createdAt,value
2023-03-30T00:01:26.946Z,7.00
2023-03-30T00:03:55.483Z,7.00
2023-03-30T00:06:23.157Z,7.00
2023-03-30T00:08:53.477Z,7.10
2023-03-30T00:11:23.268Z,7.00
2023-03-30T00:13:52.901Z,7.10
2023-03-30T00:16:19.836Z,7.00
2023-03-30T00:18:47.468Z,7.00
2023-03-30T00:21:18.190Z,7.00
2023-03-30T00:23:48.206Z,7.00
2023-03-30T00:26:15.181Z,7.10
2023-03-30T00:28:42.311Z,7.00
2023-03-30T00:31:10.796Z,7.00
2023-03-30T00:33:44.715Z,7.00
2023-03-30T00:36:12.993Z,6.90
2023-03-30T00:38:40.822Z,7.10
2023-03-30T00:41:07.828Z,6.90
2023-03-30T00:43:34.875Z,6.90
2023-03-30T00:46:01.837Z,7.00
2023-03-30T00:48:34.334Z,7.00
2023-03-30T00:51:05.430Z,7.00
2023-03-30T00:53:39.285Z,7.00
2023-03-30T00:56:07.660Z,6.90
2023-03-30T00:58:35.740Z,6.90
2023-03-30T01:01:03.717Z,6.90
2023-03-30T01:03:32.692Z,6.90
2023-03-30T01:06:01.398Z,6.90
2023-03-30T01:08:34.409Z,6.80
2023-03-30T01:11:01.995Z,6.80
2023-03-30T01:13:33.768Z,6.80
2023-03-30T01:16:06.452Z,6.70
2023-03-30T01:18:48.337Z,6.70
2023-03-30T01:21:51.969Z,6.70
2023-03-30T01:24:42.782Z,6.60
2023-03-30T01:27:19.165Z,6.50
2023-03-30T01:30:30.643Z,6.60
2023-03-30T01:33:35.613Z,6.60
2023-03-30T01:36:26.871Z,6.60
2023-03-30T01:39:21.696Z,6.60
2023-03-30T01:42:16.154Z,6.60
2023-03-30T01:44:54.485Z,6.60
2023-03-30T01:47:24.020Z,6.60
2023-03-30T01:50:01.790Z,6.60
2023-03-30T01:52:50.296Z,6.60
2023-03-30T01:55:21.783Z,6.60
2023-03-30T01:57:57.283Z,6.60
2023-03-30T02:00:24.285Z,6.50
2023-03-30T02:03:02.704Z,6.50
2023-03-30T02:05:29.510Z,6.60
2023-03-30T02:08:01.421Z,6.60
2023-03-30T02:10:29.599Z,6.60
2023-03-30T02:12:56.972Z,6.60
2023-03-30T02:15:23.859Z,6.60
2023-03-30T02:17:50.753Z,6.70
2023-03-30T02:20:17.742Z,6.60
2023-03-30T02:22:44.915Z,6.60
2023-03-30T02:25:12.282Z,6.60
2023-03-30T02:27:39.218Z,6.60
2023-03-30T02:30:07.842Z,6.60
2023-03-30T02:32:49.153Z,6.50
2023-03-30T02:35:43.120Z,6.40
2023-03-30T02:38:33.788Z,6.40
2023-03-30T02:41:13.829Z,6.40
2023-03-30T02:44:05.581Z,6.50
2023-03-30T02:46:53.448Z,6.50
2023-03-30T02:49:43.114Z,6.60
2023-03-30T02:52:25.709Z,6.60
2023-03-30T02:55:05.013Z,6.60
2023-03-30T02:57:41.193Z,6.60
2023-03-30T03:00:22.145Z,6.60
2023-03-30T03:02:51.680Z,6.70
2023-03-30T03:05:18.754Z,6.70
2023-03-30T03:07:45.541Z,6.70
2023-03-30T03:10:12.933Z,6.60
2023-03-30T03:12:39.742Z,6.60
2023-03-30T03:15:07.022Z,6.60
2023-03-30T03:17:36.539Z,6.70
2023-03-30T03:20:08.412Z,6.70
2023-03-30T03:22:35.229Z,6.70
2023-03-30T03:25:02.647Z,6.70
2023-03-30T03:27:29.471Z,6.70
2023-03-30T03:29:56.269Z,6.80
2023-03-30T03:32:23.071Z,6.70
2023-03-30T03:34:49.983Z,6.80
2023-03-30T03:37:16.834Z,6.80
2023-03-30T03:39:43.618Z,6.80
2023-03-30T03:42:11.461Z,6.80
2023-03-30T03:44:40.565Z,6.80
2023-03-30T03:47:07.318Z,6.80
2023-03-30T03:49:34.071Z,6.80
2023-03-30T03:52:00.815Z,6.80
2023-03-30T03:54:27.603Z,6.80
2023-03-30T03:56:54.480Z,6.80
2023-03-30T03:59:21.343Z,6.80
2023-03-30T04:01:48.151Z,6.80
2023-03-30T04:04:14.960Z,6.90
2023-03-30T04:06:41.714Z,6.80
2023-03-30T04:09:08.448Z,6.80
2023-03-30T04:11:35.262Z,6.80
2023-03-30T04:14:02.029Z,6.80
2023-03-30T04:16:29.024Z,6.80
2023-03-30T04:18:57.708Z,6.80
2023-03-30T04:21:25.300Z,6.80
2023-03-30T04:23:52.063Z,6.80
2023-03-30T04:26:18.873Z,6.80
2023-03-30T04:28:46.935Z,6.80
2023-03-30T04:31:13.781Z,6.80
2023-03-30T04:33:52.011Z,6.60
2023-03-30T04:36:20.201Z,6.60
2023-03-30T04:38:59.866Z,6.60
2023-03-30T04:41:33.449Z,6.80
2023-03-30T04:44:04.746Z,6.80
2023-03-30T04:46:31.810Z,6.80
2023-03-30T04:48:58.693Z,6.80
2023-03-30T04:51:25.546Z,6.80
2023-03-30T04:53:52.238Z,6.80
2023-03-30T04:56:19.011Z,6.90
2023-03-30T04:58:45.934Z,6.90
2023-03-30T05:01:12.707Z,6.90
2023-03-30T05:03:39.533Z,6.90
2023-03-30T05:06:06.626Z,6.90
2023-03-30T05:08:34.270Z,6.90
2023-03-30T05:11:02.971Z,7.00
2023-03-30T05:13:29.871Z,7.00
2023-03-30T05:15:57.059Z,7.00
2023-03-30T05:18:23.776Z,7.00
2023-03-30T05:20:50.634Z,7.00
2023-03-30T05:23:17.416Z,7.00
2023-03-30T05:25:48.954Z,7.00
2023-03-30T05:28:17.204Z,7.00
2023-03-30T05:30:44.724Z,7.00
2023-03-30T05:33:11.659Z,7.00
2023-03-30T05:35:38.615Z,7.00
2023-03-30T05:38:05.416Z,7.00
2023-03-30T05:40:32.215Z,7.00
2023-03-30T05:42:59.189Z,7.00
2023-03-30T05:45:25.989Z,7.00
2023-03-30T05:47:56.128Z,7.10
2023-03-30T05:50:22.982Z,7.10
2023-03-30T05:52:50.000Z,7.10
2023-03-30T05:55:16.791Z,7.10
2023-03-30T05:57:43.579Z,7.10
2023-03-30T06:00:12.397Z,7.10
2023-03-30T06:02:39.989Z,7.20
2023-03-30T06:05:08.451Z,7.30
2023-03-30T06:07:35.527Z,7.20
2023-03-30T06:10:02.346Z,7.20
2023-03-30T06:12:29.224Z,7.20
2023-03-30T06:14:56.089Z,7.20
2023-03-30T06:17:22.885Z,7.10
2023-03-30T06:19:49.770Z,7.30
2023-03-30T06:22:16.498Z,7.30
2023-03-30T06:24:43.262Z,7.30
2023-03-30T06:27:10.088Z,7.30
2023-03-30T06:29:36.912Z,7.30
2023-03-30T06:32:03.930Z,7.30
2023-03-30T06:34:31.093Z,7.30
2023-03-30T06:36:58.216Z,7.30
2023-03-30T06:39:25.562Z,7.40
2023-03-30T06:41:52.330Z,7.40
2023-03-30T06:44:19.782Z,7.40
2023-03-30T06:46:47.018Z,7.50
2023-03-30T06:49:14.147Z,7.50
2023-03-30T06:51:41.940Z,7.50
2023-03-30T06:54:08.886Z,7.60
2023-03-30T06:56:35.710Z,7.60
2023-03-30T06:59:03.044Z,7.70
2023-03-30T07:01:29.898Z,7.70
2023-03-30T07:03:57.054Z,7.70
2023-03-30T07:06:24.370Z,7.70
2023-03-30T07:08:51.738Z,7.70
2023-03-30T07:11:18.520Z,7.80
2023-03-30T07:13:45.348Z,7.80
2023-03-30T07:16:12.107Z,7.90
2023-03-30T07:18:38.891Z,7.90
2023-03-30T07:21:06.347Z,8.00
2023-03-30T07:23:33.940Z,7.90
2023-03-30T07:26:01.072Z,8.00
2023-03-30T07:28:27.856Z,8.00
2023-03-30T07:30:54.622Z,8.00
2023-03-30T07:33:22.148Z,8.10
2023-03-30T07:35:50.126Z,8.10
2023-03-30T07:38:17.428Z,8.20
2023-03-30T07:40:46.642Z,8.20
2023-03-30T07:43:13.620Z,8.40
2023-03-30T07:45:40.405Z,8.40
2023-03-30T07:48:07.674Z,8.40
2023-03-30T07:50:34.711Z,8.40
2023-03-30T07:53:01.671Z,8.40
2023-03-30T07:55:28.805Z,8.50
2023-03-30T07:57:56.137Z,8.50
2023-03-30T08:00:23.886Z,8.50
2023-03-30T08:02:51.210Z,8.50
2023-03-30T08:05:18.190Z,8.50
2023-03-30T08:07:45.229Z,8.60
2023-03-30T08:10:12.019Z,8.60
2023-03-30T08:12:38.771Z,8.70
2023-03-30T08:15:06.440Z,8.70
2023-03-30T08:17:33.332Z,8.80
2023-03-30T08:20:01.898Z,8.80
2023-03-30T08:22:28.710Z,8.90
2023-03-30T08:24:55.476Z,8.90
2023-03-30T08:27:22.436Z,9.00
2023-03-30T08:29:49.212Z,9.00
2023-03-30T08:32:16.508Z,9.00
2023-03-30T08:34:43.241Z,9.10
2023-03-30T08:37:11.165Z,9.20
2023-03-30T08:39:38.511Z,9.20
2023-03-30T08:42:14.129Z,9.30
2023-03-30T08:44:41.512Z,9.30
2023-03-30T08:47:20.656Z,9.30
2023-03-30T08:49:54.867Z,9.40
2023-03-30T08:52:23.650Z,9.40
2023-03-30T08:54:52.276Z,9.40
2023-03-30T08:57:51.227Z,9.40
2023-03-30T09:00:22.391Z,9.50
2023-03-30T09:02:51.712Z,9.50
2023-03-30T09:05:37.867Z,9.50
2023-03-30T09:08:09.772Z,9.50
2023-03-30T09:10:39.221Z,9.50
2023-03-30T09:13:06.036Z,9.50
2023-03-30T09:15:39.807Z,9.50
2023-03-30T09:18:27.524Z,9.40
2023-03-30T09:20:55.473Z,9.50
2023-03-30T09:23:22.509Z,9.60
2023-03-30T09:25:54.907Z,9.60
2023-03-30T09:28:39.490Z,9.50
2023-03-30T09:31:14.455Z,9.50
2023-03-30T09:33:49.845Z,9.60
2023-03-30T09:36:29.458Z,9.60
2023-03-30T09:38:56.272Z,9.70
2023-03-30T09:42:08.993Z,9.80
2023-03-30T09:44:40.520Z,9.90
2023-03-30T09:47:19.716Z,10.10
2023-03-30T09:49:47.232Z,10.20
2023-03-30T09:52:20.842Z,10.30
2023-03-30T09:54:47.589Z,10.40
2023-03-30T09:57:25.820Z,10.50
2023-03-30T09:59:56.474Z,10.50
2023-03-30T10:02:25.301Z,10.60
2023-03-30T10:04:58.055Z,10.70
2023-03-30T10:07:31.794Z,10.80
2023-03-30T10:10:00.008Z,10.80
2023-03-30T10:12:26.869Z,10.90
2023-03-30T10:14:55.070Z,11.00
2023-03-30T10:17:24.693Z,11.10
2023-03-30T10:20:14.583Z,11.20
2023-03-30T10:22:53.111Z,11.30
2023-03-30T10:25:23.913Z,11.40
2023-03-30T10:27:53.495Z,11.50
2023-03-30T10:30:24.795Z,11.50
2023-03-30T10:32:52.565Z,11.50
2023-03-30T10:35:22.124Z,11.60
2023-03-30T10:37:51.196Z,11.60
2023-03-30T10:40:23.751Z,11.60
2023-03-30T10:42:52.099Z,11.70
2023-03-30T10:45:29.029Z,11.60
2023-03-30T10:48:04.910Z,11.70
2023-03-30T10:50:41.820Z,11.80
2023-03-30T10:53:32.833Z,11.80
2023-03-30T10:56:25.949Z,11.90
2023-03-30T10:58:55.463Z,12.00
2023-03-30T11:01:38.274Z,11.90
2023-03-30T11:04:20.439Z,12.00
2023-03-30T11:06:50.762Z,12.10
2023-03-30T11:09:19.872Z,12.20
2023-03-30T11:11:54.587Z,12.10
2023-03-30T11:14:39.697Z,12.20
2023-03-30T11:17:30.967Z,12.40
2023-03-30T11:19:58.388Z,12.50
2023-03-30T11:22:33.649Z,12.60
2023-03-30T11:25:00.571Z,12.80
2023-03-30T11:27:30.813Z,12.90
2023-03-30T11:30:03.266Z,12.90
2023-03-30T11:32:44.148Z,13.00
2023-03-30T11:35:43.765Z,13.20
2023-03-30T11:38:32.783Z,13.30
2023-03-30T11:41:01.887Z,13.40
2023-03-30T11:43:29.707Z,13.60
2023-03-30T11:46:34.567Z,13.70
2023-03-30T11:49:25.770Z,13.70
2023-03-30T11:52:08.068Z,13.70
2023-03-30T11:55:01.824Z,13.70
2023-03-30T11:57:45.752Z,13.80
2023-03-30T12:00:36.632Z,13.90
2023-03-30T12:03:08.138Z,13.90
2023-03-30T12:05:37.912Z,14.00
2023-03-30T12:08:17.296Z,14.00
2023-03-30T12:10:45.015Z,14.00
2023-03-30T12:13:12.680Z,14.00
2023-03-30T12:15:49.964Z,14.00
2023-03-30T12:18:34.733Z,14.10
2023-03-30T12:21:16.787Z,14.20
2023-03-30T12:23:47.766Z,14.20
2023-03-30T12:26:26.966Z,14.30
2023-03-30T12:29:32.559Z,14.50
2023-03-30T12:31:51.243Z,14.60
2023-03-30T12:34:18.063Z,14.60
2023-03-30T12:36:49.278Z,14.60
2023-03-30T12:40:22.371Z,14.50
2023-03-30T12:42:54.194Z,14.60
2023-03-30T12:45:32.870Z,14.60
2023-03-30T12:48:14.268Z,14.50
2023-03-30T12:51:07.151Z,14.50
2023-03-30T12:53:55.239Z,14.50
2023-03-30T12:56:57.673Z,14.50
2023-03-30T12:59:45.366Z,14.50
2023-03-30T13:02:15.139Z,14.50
2023-03-30T13:04:41.893Z,14.60
2023-03-30T13:07:14.035Z,14.60
2023-03-30T13:09:59.992Z,14.60
2023-03-30T13:12:38.561Z,14.70
2023-03-30T13:15:32.575Z,14.80
2023-03-30T13:18:00.362Z,14.90
2023-03-30T13:20:48.001Z,14.90
2023-03-30T13:23:14.761Z,14.90
2023-03-30T13:26:02.469Z,14.90
2023-03-30T13:28:54.923Z,14.90
2023-03-30T13:31:46.217Z,14.90
2023-03-30T13:34:23.319Z,14.90
2023-03-30T13:37:09.560Z,14.90
2023-03-30T13:40:00.251Z,14.80
2023-03-30T13:42:32.746Z,14.80
2023-03-30T13:45:08.419Z,14.80
2023-03-30T13:47:57.564Z,14.90
2023-03-30T13:50:31.361Z,14.90
2023-03-30T13:52:59.699Z,14.90
2023-03-30T13:55:49.574Z,14.90
2023-03-30T13:58:23.416Z,15.00
2023-03-30T14:01:01.289Z,15.10
2023-03-30T14:03:28.876Z,15.10
2023-03-30T14:06:07.775Z,15.20
2023-03-30T14:08:37.130Z,15.30
2023-03-30T14:11:24.203Z,15.30
2023-03-30T14:13:52.485Z,15.40
2023-03-30T14:16:26.993Z,15.40
2023-03-30T14:19:05.730Z,15.50
2023-03-30T14:21:34.570Z,15.60
2023-03-30T14:24:01.576Z,15.60
2023-03-30T14:26:29.256Z,15.60
2023-03-30T14:28:57.358Z,15.60
2023-03-30T14:31:27.030Z,15.60
2023-03-30T14:33:53.961Z,15.50
2023-03-30T14:36:21.327Z,15.20
2023-03-30T14:38:54.444Z,15.00
2023-03-30T14:41:23.694Z,14.60
2023-03-30T14:43:59.042Z,14.30
2023-03-30T14:46:28.859Z,14.00
2023-03-30T14:48:56.104Z,13.90
2023-03-30T14:51:27.730Z,13.80
2023-03-30T14:53:55.004Z,13.70
2023-03-30T14:56:22.652Z,13.50
2023-03-30T14:58:49.979Z,13.30
2023-03-30T15:01:18.467Z,13.00
2023-03-30T15:03:45.510Z,12.90
2023-03-30T15:06:15.755Z,12.80
2023-03-30T15:08:46.401Z,12.70
2023-03-30T15:11:24.352Z,12.60
2023-03-30T15:14:02.984Z,12.50
2023-03-30T15:16:31.731Z,12.60
2023-03-30T15:19:31.043Z,12.60
2023-03-30T15:22:03.155Z,12.70
2023-03-30T15:24:34.416Z,12.80
2023-03-30T15:27:05.846Z,12.80
2023-03-30T15:29:32.912Z,12.80
2023-03-30T15:32:17.201Z,12.80
2023-03-30T15:35:15.299Z,12.60
2023-03-30T15:38:04.233Z,12.40
2023-03-30T15:40:39.535Z,12.30
2023-03-30T15:43:23.503Z,12.30
2023-03-30T15:45:51.676Z,12.20
2023-03-30T15:48:35.221Z,12.10
2023-03-30T15:51:27.626Z,12.10
2023-03-30T15:54:14.425Z,12.10
2023-03-30T15:57:04.000Z,12.20
2023-03-30T15:59:33.318Z,12.20
2023-03-30T16:02:12.643Z,12.10
2023-03-30T16:04:39.450Z,12.10
2023-03-30T16:07:25.142Z,12.00
2023-03-30T16:09:52.153Z,12.10
2023-03-30T16:12:28.940Z,12.00
2023-03-30T16:14:56.092Z,11.80
2023-03-30T16:17:22.837Z,11.70
2023-03-30T16:19:49.535Z,11.70
2023-03-30T16:22:16.354Z,11.70
2023-03-30T16:24:43.242Z,11.70
2023-03-30T16:27:14.518Z,11.70
2023-03-30T16:29:41.397Z,11.70
2023-03-30T16:32:08.294Z,11.60
2023-03-30T16:34:35.080Z,11.70
2023-03-30T16:37:02.096Z,11.70
2023-03-30T16:39:29.474Z,11.70
2023-03-30T16:41:56.407Z,11.80
2023-03-30T16:44:24.120Z,11.70
2023-03-30T16:46:51.426Z,11.60
2023-03-30T16:49:23.040Z,11.40
2023-03-30T16:51:50.037Z,11.50
2023-03-30T16:54:30.415Z,11.50
2023-03-30T16:56:59.644Z,11.40
2023-03-30T16:59:29.075Z,11.40
2023-03-30T17:01:56.069Z,11.50
2023-03-30T17:04:22.884Z,11.50
2023-03-30T17:06:49.711Z,11.50
2023-03-30T17:09:18.145Z,11.50
2023-03-30T17:11:46.392Z,11.50
2023-03-30T17:14:13.253Z,11.50
2023-03-30T17:16:40.397Z,11.50
2023-03-30T17:19:10.846Z,11.50
2023-03-30T17:21:37.685Z,11.50
2023-03-30T17:24:04.639Z,11.40
2023-03-30T17:26:31.420Z,11.40
2023-03-30T17:28:58.182Z,11.30
2023-03-30T17:31:25.023Z,11.30
2023-03-30T17:33:51.835Z,11.20
2023-03-30T17:36:25.450Z,11.20
2023-03-30T17:38:52.298Z,11.20
2023-03-30T17:41:19.620Z,11.20
2023-03-30T17:43:47.994Z,11.20
2023-03-30T17:46:16.537Z,11.10
2023-03-30T17:48:43.321Z,11.20
2023-03-30T17:51:10.369Z,11.10
2023-03-30T17:53:37.547Z,11.10
2023-03-30T17:56:04.996Z,11.10
2023-03-30T17:58:34.133Z,11.10
2023-03-30T18:01:02.040Z,11.10
2023-03-30T18:03:31.737Z,11.00
2023-03-30T18:05:59.416Z,11.10
2023-03-30T18:08:26.636Z,11.10
2023-03-30T18:10:54.645Z,11.00
2023-03-30T18:13:21.808Z,11.00
2023-03-30T18:15:49.919Z,11.00
2023-03-30T18:18:24.850Z,11.00
2023-03-30T18:21:03.442Z,11.00
2023-03-30T18:23:37.285Z,11.00
2023-03-30T18:26:08.568Z,10.90
2023-03-30T18:28:40.595Z,10.80
2023-03-30T18:31:08.736Z,10.70
2023-03-30T18:33:35.733Z,10.80
2023-03-30T18:36:05.988Z,10.60
2023-03-30T18:38:33.608Z,10.60
2023-03-30T18:41:01.282Z,10.50
2023-03-30T18:43:28.256Z,10.50
2023-03-30T18:45:58.551Z,10.50
2023-03-30T18:48:27.800Z,10.60
2023-03-30T18:50:54.743Z,10.60
2023-03-30T18:53:22.895Z,10.50
2023-03-30T18:55:50.985Z,10.40
2023-03-30T18:58:22.189Z,10.40
2023-03-30T19:00:49.808Z,10.30
2023-03-30T19:03:17.063Z,10.40
2023-03-30T19:05:44.056Z,10.30
2023-03-30T19:08:11.993Z,10.20
2023-03-30T19:10:39.307Z,10.30
2023-03-30T19:13:06.066Z,10.20
2023-03-30T19:15:34.376Z,10.00
2023-03-30T19:18:04.876Z,9.90
2023-03-30T19:20:35.314Z,9.90
2023-03-30T19:23:02.105Z,10.00
2023-03-30T19:25:28.836Z,10.00
2023-03-30T19:28:03.070Z,9.90
2023-03-30T19:30:34.222Z,9.80
2023-03-30T19:33:02.950Z,9.90
2023-03-30T19:35:29.807Z,10.00
2023-03-30T19:37:56.615Z,9.90
2023-03-30T19:40:23.672Z,10.00
2023-03-30T19:42:50.814Z,10.00
2023-03-30T19:45:20.268Z,10.00
2023-03-30T19:47:47.417Z,9.80
2023-03-30T19:50:17.834Z,9.90
2023-03-30T19:52:48.521Z,9.90
2023-03-30T19:55:15.693Z,9.90
2023-03-30T19:57:42.510Z,9.90
2023-03-30T20:00:12.822Z,9.80
2023-03-30T20:02:40.247Z,9.70
2023-03-30T20:05:10.192Z,9.70
2023-03-30T20:07:37.290Z,9.70
2023-03-30T20:10:05.228Z,9.60
2023-03-30T20:12:32.002Z,9.50
2023-03-30T20:14:59.961Z,9.50
2023-03-30T20:17:29.986Z,9.50
2023-03-30T20:19:58.175Z,9.50
2023-03-30T20:22:25.645Z,9.50
2023-03-30T20:24:52.488Z,9.50
2023-03-30T20:27:19.312Z,9.50
2023-03-30T20:29:46.084Z,9.50
2023-03-30T20:32:12.959Z,9.40
2023-03-30T20:34:40.236Z,9.30
2023-03-30T20:37:07.061Z,9.40
2023-03-30T20:39:34.266Z,9.30
2023-03-30T20:42:02.103Z,9.40
2023-03-30T20:44:31.954Z,9.40
2023-03-30T20:46:59.092Z,9.40
2023-03-30T20:49:26.069Z,9.40
2023-03-30T20:51:53.369Z,9.30
2023-03-30T20:54:20.787Z,9.30
2023-03-30T20:56:47.630Z,9.20
2023-03-30T20:59:14.516Z,9.20
2023-03-30T21:01:41.304Z,9.20
2023-03-30T21:04:08.273Z,9.30
2023-03-30T21:06:35.998Z,9.20
2023-03-30T21:09:04.679Z,9.20
2023-03-30T21:11:33.813Z,9.30
2023-03-30T21:14:01.532Z,9.10
2023-03-30T21:16:28.975Z,9.10
2023-03-30T21:18:55.827Z,9.10
2023-03-30T21:21:22.560Z,9.10
2023-03-30T21:23:49.438Z,9.10
2023-03-30T21:26:18.557Z,9.00
2023-03-30T21:28:45.538Z,9.10
2023-03-30T21:31:14.316Z,9.00
2023-03-30T21:33:41.301Z,9.10
2023-03-30T21:36:09.019Z,9.10
2023-03-30T21:38:36.344Z,9.00
2023-03-30T21:41:13.770Z,9.00
2023-03-30T21:43:44.052Z,9.00
2023-03-30T21:46:12.665Z,9.00
2023-03-30T21:48:40.324Z,8.90
2023-03-30T21:51:08.304Z,9.00
2023-03-30T21:53:35.550Z,8.90
2023-03-30T21:56:02.772Z,8.90
2023-03-30T21:58:29.771Z,8.90
2023-03-30T22:01:09.041Z,8.90
2023-03-30T22:03:38.627Z,8.80
2023-03-30T22:06:07.667Z,8.80
2023-03-30T22:08:35.452Z,8.80
2023-03-30T22:11:11.378Z,8.70
2023-03-30T22:13:38.129Z,8.70
2023-03-30T22:16:16.473Z,8.70
2023-03-30T22:18:43.597Z,8.60
2023-03-30T22:21:12.999Z,8.70
2023-03-30T22:23:39.784Z,8.60
2023-03-30T22:26:08.254Z,8.60
2023-03-30T22:28:35.806Z,8.60
2023-03-30T22:31:02.873Z,8.60
2023-03-30T22:33:29.926Z,8.60
2023-03-30T22:35:57.156Z,8.60
2023-03-30T22:38:24.091Z,8.60
2023-03-30T22:40:50.992Z,8.60
2023-03-30T22:43:17.778Z,8.80
2023-03-30T22:45:44.584Z,8.50
2023-03-30T22:48:11.297Z,8.50
2023-03-30T22:50:38.021Z,8.50
2023-03-30T22:53:04.801Z,8.50
2023-03-30T22:55:31.523Z,8.50
2023-03-30T22:57:58.321Z,8.50
2023-03-30T23:00:25.169Z,8.50
2023-03-30T23:02:52.094Z,8.50
2023-03-30T23:05:21.287Z,8.40
2023-03-30T23:07:48.917Z,8.40
2023-03-30T23:10:19.728Z,8.40
2023-03-30T23:12:46.679Z,8.40
2023-03-30T23:15:13.719Z,8.40
2023-03-30T23:17:40.850Z,8.40
2023-03-30T23:20:10.202Z,8.50
2023-03-30T23:22:38.005Z,8.40
2023-03-30T23:25:05.825Z,8.40
2023-03-30T23:27:32.681Z,8.40
2023-03-30T23:29:59.487Z,8.30
2023-03-30T23:32:26.334Z,8.30
2023-03-30T23:34:53.130Z,8.50
2023-03-30T23:37:21.939Z,8.40
2023-03-30T23:39:49.043Z,8.40
2023-03-30T23:42:16.369Z,8.40
2023-03-30T23:44:43.152Z,8.40
2023-03-30T23:47:09.893Z,8.40
2023-03-30T23:49:36.669Z,8.30
2023-03-30T23:52:03.444Z,8.40
2023-03-30T23:54:31.680Z,8.40
2023-03-30T23:56:58.574Z,8.40
2023-03-30T23:59:25.431Z,8.40
